Terminal Aerodrome Forecast
Issued by NWS

Home | Current Version | Previous Version | Text Only | Print | Product List | Glossary On
Versions: 1 2 3 4 5 6 7 8 9 10 11 12 13 14 15 16 17 18 19
000
FTUS45 KBOU 201721
TAFAPA
TAF
KAPA 201721Z 2018/2118 04009KT P6SM FEW090 SCT200
     FM202100 07012KT P6SM VCTS SCT100CB
      TEMPO 2021/2024 VRB20G30KT
     FM210000 16008KT P6SM SCT100 BKN200
     FM210300 19008KT P6SM SCT100 BKN200
     FM211400 VRB05KT P6SM SCT100 BKN200
     FM211700 35007KT P6SM SCT100 BKN200=

USA.gov is the U.S. government's official web portal to all federal, state and local government web resources and services.